createdAt,value
2022-09-21T00:01:34.537Z,101859.38
2022-09-21T00:04:06.046Z,101855.75
2022-09-21T00:06:38.172Z,101868.97
2022-09-21T00:09:09.552Z,101856.50
2022-09-21T00:11:41.035Z,101852.97
2022-09-21T00:14:14.267Z,101866.22
2022-09-21T00:16:45.751Z,101866.97
2022-09-21T00:19:17.337Z,101867.88
2022-09-21T00:21:48.912Z,101860.75
2022-09-21T00:24:20.159Z,101844.78
2022-09-21T00:26:51.462Z,101858.94
2022-09-21T00:29:22.731Z,101869.53
2022-09-21T00:31:54.026Z,101877.41
2022-09-21T00:34:25.789Z,101865.00
2022-09-21T00:36:57.045Z,101865.78
2022-09-21T00:39:28.538Z,101879.97
2022-09-21T00:41:59.815Z,101891.38
2022-09-21T00:44:32.943Z,101850.63
2022-09-21T00:47:10.088Z,101886.00
2022-09-21T00:49:44.776Z,101870.91
2022-09-21T00:52:19.485Z,101878.00
2022-09-21T00:55:00.651Z,101874.34
2022-09-21T00:57:32.600Z,101870.84
2022-09-21T01:00:11.072Z,101880.53
2022-09-21T01:02:42.767Z,101863.69
2022-09-21T01:05:14.169Z,101874.28
2022-09-21T01:07:47.829Z,101862.66
2022-09-21T01:10:19.942Z,101861.69
2022-09-21T01:12:57.000Z,101876.78
2022-09-21T01:15:46.642Z,101850.97
2022-09-21T01:18:24.102Z,101892.56
2022-09-21T01:21:13.977Z,101891.59
2022-09-21T01:24:14.166Z,101894.16
2022-09-21T01:27:04.159Z,101894.09
2022-09-21T01:30:07.976Z,101887.78
2022-09-21T01:32:52.233Z,101877.94
2022-09-21T01:35:28.768Z,101878.78
2022-09-21T01:38:15.717Z,101895.59
2022-09-21T01:40:52.874Z,101888.44
2022-09-21T01:43:28.348Z,101889.16
2022-09-21T01:49:50.209Z,101890.06
2022-09-21T01:52:26.710Z,101894.44
2022-09-21T01:55:10.376Z,101898.69
2022-09-21T01:57:59.344Z,101894.25
2022-09-21T02:00:34.544Z,101897.72
2022-09-21T02:03:14.018Z,101895.03
2022-09-21T02:05:45.427Z,101885.28
2022-09-21T02:08:16.954Z,101887.97
2022-09-21T02:10:51.730Z,101894.06
2022-09-21T02:13:27.524Z,101896.66
2022-09-21T02:16:22.793Z,101885.16
2022-09-21T02:19:27.995Z,101891.41
2022-09-21T02:22:07.215Z,101893.09
2022-09-21T02:24:49.141Z,101901.84
2022-09-21T02:27:37.301Z,101882.28
2022-09-21T02:30:24.769Z,101905.22
2022-09-21T02:33:22.890Z,101898.16
2022-09-21T02:36:46.952Z,101906.00
2022-09-21T02:39:24.850Z,101900.59
2022-09-21T02:42:05.706Z,101905.91
2022-09-21T02:44:46.392Z,101901.53
2022-09-21T02:47:31.578Z,101891.66
2022-09-21T02:50:09.317Z,101898.81
2022-09-21T02:52:43.303Z,101874.84
2022-09-21T02:55:17.006Z,101902.19
2022-09-21T02:57:49.810Z,101904.00
2022-09-21T03:00:21.266Z,101906.66
2022-09-21T03:02:52.568Z,101886.19
2022-09-21T03:05:24.122Z,101900.47
2022-09-21T03:07:55.385Z,101914.47
2022-09-21T03:10:26.653Z,101903.75
2022-09-21T03:12:59.459Z,101907.22
2022-09-21T03:15:31.370Z,101917.84
2022-09-21T03:18:04.981Z,101886.75
2022-09-21T03:20:37.458Z,101918.53
2022-09-21T03:23:08.835Z,101902.50
2022-09-21T03:25:40.498Z,101917.59
2022-09-21T03:28:12.799Z,101925.50
2022-09-21T03:30:44.500Z,101903.25
2022-09-21T03:33:18.982Z,101910.25
2022-09-21T03:35:50.912Z,101917.25
2022-09-21T03:38:22.296Z,101929.72
2022-09-21T03:40:57.781Z,101934.94
2022-09-21T03:43:29.274Z,101910.06
2022-09-21T03:46:00.602Z,101926.09
2022-09-21T03:48:32.639Z,101926.09
2022-09-21T03:51:03.990Z,101917.19
2022-09-21T03:53:35.778Z,101916.19
2022-09-21T03:56:07.084Z,101928.69
2022-09-21T03:58:38.332Z,101902.84
2022-09-21T04:01:09.721Z,101934.72
2022-09-21T04:03:41.047Z,101935.56
2022-09-21T04:06:13.066Z,101934.66
2022-09-21T04:08:44.417Z,101933.69
2022-09-21T04:11:18.492Z,101927.56
2022-09-21T04:13:53.180Z,101928.41
2022-09-21T04:16:25.418Z,101916.72
2022-09-21T04:18:57.060Z,101930.94
2022-09-21T04:21:28.576Z,101927.38
2022-09-21T04:24:01.893Z,101910.41
2022-09-21T04:26:34.826Z,101927.31
2022-09-21T04:29:06.341Z,101927.16
2022-09-21T04:31:38.495Z,101936.84
2022-09-21T04:34:13.715Z,101933.31
2022-09-21T04:36:45.865Z,101927.13
2022-09-21T04:39:17.143Z,101912.84
2022-09-21T04:41:48.737Z,101904.78
2022-09-21T04:44:19.988Z,101927.88
2022-09-21T04:46:51.414Z,101918.00
2022-09-21T04:49:22.777Z,101933.94
2022-09-21T04:51:54.138Z,101917.97
2022-09-21T04:54:25.482Z,101933.84
2022-09-21T04:56:57.041Z,101933.06
2022-09-21T04:59:28.310Z,101923.22
2022-09-21T05:01:59.624Z,101929.41
2022-09-21T05:04:30.960Z,101934.72
2022-09-21T05:07:02.337Z,101946.16
2022-09-21T05:09:52.450Z,101930.13
2022-09-21T05:12:23.710Z,101943.41
2022-09-21T05:14:55.957Z,101931.78
2022-09-21T05:17:27.539Z,101944.25
2022-09-21T05:19:58.890Z,101957.56
2022-09-21T05:22:30.148Z,101957.59
2022-09-21T05:25:01.509Z,101957.63
2022-09-21T05:27:32.756Z,101955.91
2022-09-21T05:30:05.756Z,101968.28
2022-09-21T05:32:46.172Z,101955.09
2022-09-21T05:35:37.890Z,101961.53
2022-09-21T05:38:18.929Z,101967.75
2022-09-21T05:40:50.544Z,101949.28
2022-09-21T05:43:22.167Z,101959.09
2022-09-21T05:46:02.591Z,101959.34
2022-09-21T05:48:42.997Z,101953.19
2022-09-21T05:51:32.294Z,101968.47
2022-09-21T05:54:26.410Z,101960.88
2022-09-21T05:57:38.240Z,101964.88
2022-09-21T06:00:20.561Z,101958.97
2022-09-21T06:03:04.524Z,101964.53
2022-09-21T06:05:36.502Z,101978.03
2022-09-21T06:08:07.814Z,101982.66
2022-09-21T06:10:39.161Z,101963.44
2022-09-21T06:13:10.589Z,101978.78
2022-09-21T06:15:42.147Z,101981.66
2022-09-21T06:18:17.773Z,101968.59
2022-09-21T06:20:49.611Z,101973.22
2022-09-21T06:23:21.020Z,101959.31
2022-09-21T06:25:57.534Z,101977.44
2022-09-21T06:28:29.841Z,101977.75
2022-09-21T06:31:01.225Z,101978.00
2022-09-21T06:33:32.598Z,101977.31
2022-09-21T06:36:04.104Z,101980.25
2022-09-21T06:38:35.496Z,101971.63
2022-09-21T06:41:06.770Z,101965.56
2022-09-21T06:43:38.059Z,101959.63
2022-09-21T06:46:09.384Z,101979.31
2022-09-21T06:48:40.699Z,101963.59
2022-09-21T06:51:12.012Z,101985.09
2022-09-21T06:53:43.259Z,101973.78
2022-09-21T06:56:14.833Z,101990.91
2022-09-21T06:58:47.443Z,101989.41
2022-09-21T07:01:19.477Z,101993.13
2022-09-21T07:03:51.897Z,102003.03
2022-09-21T07:06:23.143Z,102009.38
2022-09-21T07:11:46.510Z,102002.63
2022-09-21T07:14:17.794Z,102003.63
2022-09-21T07:16:49.598Z,102011.69
2022-09-21T07:19:20.866Z,102016.16
2022-09-21T07:21:55.393Z,102002.94
2022-09-21T07:24:26.652Z,102005.63
2022-09-21T07:26:58.102Z,102014.53
2022-09-21T07:29:30.474Z,101995.06
2022-09-21T07:32:01.991Z,102012.78
2022-09-21T07:34:37.121Z,101998.59
2022-09-21T07:37:08.446Z,102018.06
2022-09-21T07:39:39.768Z,102007.41
2022-09-21T07:42:11.024Z,102012.72
2022-09-21T07:44:42.264Z,102018.00
2022-09-21T07:47:14.666Z,102021.50
2022-09-21T07:49:47.025Z,102024.09
2022-09-21T07:52:19.288Z,102017.75
2022-09-21T07:54:50.548Z,102012.34
2022-09-21T07:57:40.353Z,102014.88
2022-09-21T08:00:12.389Z,102016.56
2022-09-21T08:02:47.435Z,102016.41
2022-09-21T08:05:19.519Z,102018.84
2022-09-21T08:07:50.994Z,102017.72
2022-09-21T08:10:22.784Z,102027.22
2022-09-21T08:12:55.146Z,102001.31
2022-09-21T08:15:47.356Z,102025.09
2022-09-21T08:18:18.623Z,102016.06
2022-09-21T08:20:57.202Z,102030.81
2022-09-21T08:23:29.417Z,102022.59
2022-09-21T08:26:02.330Z,102030.22
2022-09-21T08:28:36.188Z,102025.53
2022-09-21T08:31:09.524Z,102008.50
2022-09-21T08:33:40.869Z,102033.13
2022-09-21T08:36:12.211Z,102032.84
2022-09-21T08:38:43.721Z,102027.31
2022-09-21T08:41:30.196Z,102030.66
2022-09-21T08:44:11.054Z,102030.66
2022-09-21T08:46:44.652Z,102032.28
2022-09-21T08:49:26.698Z,102027.63
2022-09-21T08:52:01.962Z,102016.78
2022-09-21T08:55:17.583Z,102034.16
2022-09-21T08:57:49.176Z,102037.34
2022-09-21T09:00:20.760Z,102038.03
2022-09-21T09:03:07.118Z,102007.72
2022-09-21T09:05:44.005Z,102034.81
2022-09-21T09:08:45.760Z,102032.66
2022-09-21T09:11:34.289Z,102029.47
2022-09-21T09:14:13.921Z,102034.69
2022-09-21T09:17:05.694Z,102023.16
2022-09-21T09:19:48.062Z,102037.84
2022-09-21T09:22:25.478Z,102044.44
2022-09-21T09:25:03.171Z,102038.72
2022-09-21T09:27:38.838Z,102051.69
2022-09-21T09:30:18.464Z,102038.16
2022-09-21T09:33:01.725Z,102037.94
2022-09-21T09:35:52.742Z,102046.41
2022-09-21T09:38:39.389Z,102046.03
2022-09-21T09:41:13.441Z,102043.72
2022-09-21T09:43:58.157Z,102041.34
2022-09-21T09:46:57.607Z,102041.00
2022-09-21T09:49:40.598Z,102035.63
2022-09-21T09:52:15.044Z,102023.97
2022-09-21T09:54:46.548Z,102041.53
2022-09-21T09:57:28.743Z,102019.19
2022-09-21T10:00:05.510Z,102033.13
2022-09-21T10:02:46.334Z,102036.69
2022-09-21T10:05:33.890Z,102034.72
2022-09-21T10:08:05.182Z,102031.59
2022-09-21T10:10:40.988Z,102010.63
2022-09-21T10:13:21.925Z,102030.91
2022-09-21T10:16:01.123Z,102029.69
2022-09-21T10:19:05.792Z,102028.28
2022-09-21T10:21:40.509Z,102012.22
2022-09-21T10:24:17.588Z,102029.94
2022-09-21T10:26:54.404Z,102026.28
2022-09-21T10:29:26.048Z,102036.13
2022-09-21T10:32:03.005Z,102026.50
2022-09-21T10:34:35.481Z,102029.75
2022-09-21T10:37:30.233Z,102034.09
2022-09-21T10:40:01.769Z,102021.22
2022-09-21T10:42:41.989Z,102026.25
2022-09-21T10:45:16.518Z,102021.25
2022-09-21T10:47:54.034Z,102017.63
2022-09-21T10:50:28.261Z,102022.81
2022-09-21T10:53:17.467Z,102015.63
2022-09-21T10:56:04.831Z,102016.63
2022-09-21T10:59:21.745Z,102009.00
2022-09-21T11:01:55.901Z,102014.47
2022-09-21T11:04:43.589Z,102025.53
2022-09-21T11:07:27.416Z,102012.91
2022-09-21T11:10:10.946Z,102016.59
2022-09-21T11:13:06.454Z,102017.97
2022-09-21T11:15:47.080Z,101987.72
2022-09-21T11:18:45.702Z,101998.72
2022-09-21T11:21:36.432Z,101993.13
2022-09-21T11:24:27.039Z,102000.03
2022-09-21T11:27:19.938Z,102002.31
2022-09-21T11:30:07.102Z,102002.81
2022-09-21T11:32:53.936Z,102001.19
2022-09-21T11:35:41.181Z,101986.94
2022-09-21T11:38:38.716Z,101998.16
2022-09-21T11:41:24.237Z,101996.41
2022-09-21T11:44:10.580Z,102004.56
2022-09-21T11:46:59.168Z,101999.41
2022-09-21T11:49:48.607Z,101997.41
2022-09-21T11:52:32.434Z,101996.53
2022-09-21T11:55:25.474Z,101993.38
2022-09-21T11:58:10.183Z,101988.44
2022-09-21T12:00:58.981Z,101982.47
2022-09-21T12:03:57.595Z,101987.13
2022-09-21T12:06:37.680Z,101984.59
2022-09-21T12:09:47.539Z,101989.88
2022-09-21T12:12:25.515Z,101978.94
2022-09-21T12:15:11.331Z,101984.38
2022-09-21T12:18:36.750Z,101986.06
2022-09-21T12:21:24.038Z,101983.88
2022-09-21T12:24:02.978Z,101976.13
2022-09-21T12:26:44.796Z,101979.53
2022-09-21T12:29:50.817Z,101970.50
2022-09-21T12:32:36.863Z,101975.78
2022-09-21T12:35:14.667Z,101969.75
2022-09-21T12:38:04.572Z,101966.72
2022-09-21T12:40:38.982Z,101966.28
2022-09-21T12:43:41.452Z,101957.75
2022-09-21T12:46:24.961Z,101961.31
2022-09-21T12:48:59.010Z,101950.78
2022-09-21T12:51:43.246Z,101958.53
2022-09-21T12:54:28.081Z,101965.47
2022-09-21T12:57:45.444Z,101958.91
2022-09-21T13:00:21.992Z,101946.63
2022-09-21T13:02:58.685Z,101949.31
2022-09-21T13:05:44.309Z,101950.88
2022-09-21T13:08:19.949Z,101948.78
2022-09-21T13:11:01.704Z,101936.03
2022-09-21T13:13:35.193Z,101948.75
2022-09-21T13:16:07.743Z,101931.31
2022-09-21T13:18:40.442Z,101942.09
2022-09-21T13:21:21.957Z,101943.88
2022-09-21T13:23:58.161Z,101928.88
2022-09-21T13:26:40.352Z,101943.72
2022-09-21T13:29:17.534Z,101932.59
2022-09-21T13:32:00.947Z,101939.38
2022-09-21T13:34:33.641Z,101948.28
2022-09-21T13:37:14.043Z,101931.63
2022-09-21T13:39:50.881Z,101934.03
2022-09-21T13:42:34.616Z,101932.25
2022-09-21T13:45:15.017Z,101935.75
2022-09-21T13:47:48.866Z,101927.63
2022-09-21T13:50:25.627Z,101928.41
2022-09-21T13:53:25.179Z,101912.47
2022-09-21T13:56:09.812Z,101916.00
2022-09-21T13:58:45.879Z,101913.97
2022-09-21T14:01:46.473Z,101912.06
2022-09-21T14:04:27.445Z,101912.06
2022-09-21T14:07:04.291Z,101910.41
2022-09-21T14:09:57.878Z,101911.19
2022-09-21T14:12:37.560Z,101912.53
2022-09-21T14:15:19.340Z,101910.66
2022-09-21T14:18:18.817Z,101905.72
2022-09-21T14:21:08.866Z,101905.72
2022-09-21T14:23:40.265Z,101916.59
2022-09-21T14:26:33.927Z,101911.03
2022-09-21T14:29:20.875Z,101912.03
2022-09-21T14:31:59.445Z,101902.75
2022-09-21T14:34:36.918Z,101881.47
2022-09-21T14:37:30.172Z,101901.91
2022-09-21T14:40:06.338Z,101899.50
2022-09-21T14:42:39.713Z,101887.47
2022-09-21T14:45:18.153Z,101901.09
2022-09-21T14:48:13.947Z,101890.81
2022-09-21T14:51:10.914Z,101880.50
2022-09-21T14:54:19.736Z,101891.38
2022-09-21T14:57:17.095Z,101884.53
2022-09-21T15:00:20.914Z,101883.03
2022-09-21T15:03:18.924Z,101879.81
2022-09-21T15:05:56.697Z,101882.78
2022-09-21T15:09:18.255Z,101879.69
2022-09-21T15:11:59.180Z,101877.72
2022-09-21T15:14:40.413Z,101862.28
2022-09-21T15:17:27.135Z,101880.44
2022-09-21T15:20:00.871Z,101868.69
2022-09-21T15:22:32.690Z,101867.56
2022-09-21T15:25:05.867Z,101861.88
2022-09-21T15:27:37.691Z,101870.38
2022-09-21T15:30:21.980Z,101845.28
2022-09-21T15:33:01.785Z,101853.69
2022-09-21T15:35:33.532Z,101858.56
2022-09-21T15:38:28.898Z,101858.88
2022-09-21T15:41:03.803Z,101863.03
2022-09-21T15:43:40.315Z,101862.81
2022-09-21T15:46:12.607Z,101858.00
2022-09-21T15:48:46.057Z,101861.88
2022-09-21T15:51:29.720Z,101861.88
2022-09-21T15:54:23.686Z,101858.72
2022-09-21T15:56:55.594Z,101857.22
2022-09-21T15:59:28.831Z,101862.66
2022-09-21T16:02:10.269Z,101861.06
2022-09-21T16:04:49.848Z,101859.50
2022-09-21T16:07:29.681Z,101859.84
2022-09-21T16:10:02.426Z,101861.09
2022-09-21T16:12:43.896Z,101856.09
2022-09-21T16:15:32.116Z,101863.63
2022-09-21T16:18:06.946Z,101864.06
2022-09-21T16:20:40.496Z,101868.03
2022-09-21T16:23:19.549Z,101865.81
2022-09-21T16:26:02.010Z,101854.75
2022-09-21T16:28:39.428Z,101860.56
2022-09-21T16:31:32.089Z,101837.19
2022-09-21T16:34:18.652Z,101863.19
2022-09-21T16:36:51.263Z,101860.81
2022-09-21T16:39:23.273Z,101847.28
2022-09-21T16:42:00.036Z,101853.63
2022-09-21T16:44:39.970Z,101871.91
2022-09-21T16:47:16.478Z,101865.13
2022-09-21T16:49:47.718Z,101875.19
2022-09-21T16:52:19.141Z,101875.53
2022-09-21T16:54:51.025Z,101866.09
2022-09-21T16:57:23.782Z,101871.56
2022-09-21T16:59:55.444Z,101876.34
2022-09-21T17:02:26.759Z,101873.06
2022-09-21T17:04:58.041Z,101869.75
2022-09-21T17:07:29.281Z,101871.81
2022-09-21T17:10:01.459Z,101859.78
2022-09-21T17:12:32.717Z,101879.63
2022-09-21T17:15:06.263Z,101875.44
2022-09-21T17:17:37.561Z,101867.84
2022-09-21T17:20:19.499Z,101883.16
2022-09-21T17:22:50.745Z,101880.75
2022-09-21T17:25:22.090Z,101874.84
2022-09-21T17:27:53.463Z,101875.03
2022-09-21T17:30:25.850Z,101877.09
2022-09-21T17:32:58.349Z,101870.19
2022-09-21T17:35:32.944Z,101872.22
2022-09-21T17:38:05.005Z,101870.63
2022-09-21T17:40:36.749Z,101878.88
2022-09-21T17:43:43.698Z,101873.75
2022-09-21T17:46:37.062Z,101876.66
2022-09-21T17:49:11.134Z,101868.91
2022-09-21T17:52:01.273Z,101864.66
2022-09-21T17:54:32.903Z,101875.50
2022-09-21T17:57:14.409Z,101870.28
2022-09-21T17:59:54.925Z,101867.78
2022-09-21T18:02:26.403Z,101853.84
2022-09-21T18:05:03.020Z,101877.84
2022-09-21T18:07:34.802Z,101880.66
2022-09-21T18:10:07.168Z,101880.75
2022-09-21T18:12:51.197Z,101868.53
2022-09-21T18:15:40.109Z,101880.13
2022-09-21T18:18:28.304Z,101886.44
2022-09-21T18:21:05.674Z,101887.44
2022-09-21T18:24:05.877Z,101878.72
2022-09-21T18:26:39.113Z,101889.41
2022-09-21T18:29:40.793Z,101879.72
2022-09-21T18:32:49.222Z,101881.63
2022-09-21T18:35:28.210Z,101890.53
2022-09-21T18:38:36.057Z,101888.88
2022-09-21T18:41:33.998Z,101887.16
2022-09-21T18:44:17.920Z,101882.81
2022-09-21T18:47:06.286Z,101883.78
2022-09-21T18:49:50.341Z,101886.50
2022-09-21T18:52:33.860Z,101895.44
2022-09-21T18:55:23.711Z,101886.63
2022-09-21T18:57:57.132Z,101888.44
2022-09-21T19:00:34.949Z,101895.53
2022-09-21T19:03:19.345Z,101889.34
2022-09-21T19:06:11.172Z,101894.69
2022-09-21T19:08:54.373Z,101892.94
2022-09-21T19:11:38.055Z,101893.84
2022-09-21T19:14:35.428Z,101892.97
2022-09-21T19:17:31.430Z,101891.22
2022-09-21T19:20:12.273Z,101889.50
2022-09-21T19:23:11.620Z,101889.50
2022-09-21T19:26:08.045Z,101882.44
2022-09-21T19:28:47.986Z,101890.44
2022-09-21T19:31:19.482Z,101888.69
2022-09-21T19:33:51.718Z,101859.53
2022-09-21T19:36:24.215Z,101890.53
2022-09-21T19:38:55.762Z,101894.97
2022-09-21T19:41:56.911Z,101898.50
2022-09-21T19:44:57.572Z,101894.97
2022-09-21T19:47:31.523Z,101887.91
2022-09-21T19:50:17.100Z,101889.66
2022-09-21T19:52:48.926Z,101887.91
2022-09-21T19:55:40.354Z,101902.94
2022-09-21T19:58:30.384Z,101899.41
2022-09-21T20:01:01.849Z,101902.94
2022-09-21T20:03:39.354Z,101876.41
2022-09-21T20:06:49.917Z,101892.31
2022-09-21T20:09:29.053Z,101905.59
2022-09-21T20:12:23.492Z,101902.06
2022-09-21T20:15:15.683Z,101896.72
2022-09-21T20:17:54.462Z,101902.03
2022-09-21T20:20:26.938Z,101904.69
2022-09-21T20:23:00.181Z,101898.50
2022-09-21T20:25:35.858Z,101902.91
2022-09-21T20:28:08.273Z,101903.78
2022-09-21T20:30:40.067Z,101894.94
2022-09-21T20:33:16.962Z,101906.41
2022-09-21T20:35:49.117Z,101902.00
2022-09-21T20:38:20.413Z,101897.50
2022-09-21T20:40:51.874Z,101910.78
2022-09-21T20:43:27.963Z,101900.13
2022-09-21T20:46:03.568Z,101913.38
2022-09-21T20:48:36.929Z,101909.81
2022-09-21T20:51:10.710Z,101909.81
2022-09-21T20:53:42.133Z,101902.69
2022-09-21T20:56:13.364Z,101911.56
2022-09-21T20:58:44.664Z,101901.78
2022-09-21T21:01:16.063Z,101909.75
2022-09-21T21:03:47.432Z,101911.53
2022-09-21T21:06:19.022Z,101916.81
2022-09-21T21:08:50.620Z,101907.03
2022-09-21T21:11:22.158Z,101915.00
2022-09-21T21:13:58.178Z,101902.59
2022-09-21T21:16:30.054Z,101905.19
2022-09-21T21:19:01.356Z,101903.41
2022-09-21T21:21:32.809Z,101913.13
2022-09-21T21:24:22.988Z,101914.00
2022-09-21T21:27:02.151Z,101883.00
2022-09-21T21:29:34.180Z,101906.88
2022-09-21T21:32:05.601Z,101908.66
2022-09-21T21:34:38.210Z,101904.19
2022-09-21T21:37:11.550Z,101897.06
2022-09-21T21:39:43.412Z,101913.00
2022-09-21T21:42:14.966Z,101912.09
2022-09-21T21:44:47.454Z,101907.69
2022-09-21T21:50:10.975Z,101908.50
2022-09-21T21:52:44.965Z,101912.03
2022-09-21T21:55:16.367Z,101913.78
2022-09-21T21:57:47.626Z,101911.13
2022-09-21T22:00:18.926Z,101915.53
2022-09-21T22:02:50.198Z,101909.31
2022-09-21T22:05:21.560Z,101906.63
2022-09-21T22:07:52.866Z,101916.31
2022-09-21T22:10:24.621Z,101893.31
2022-09-21T22:12:57.278Z,101910.06
2022-09-21T22:15:29.999Z,101895.88
2022-09-21T22:18:01.254Z,101904.72
2022-09-21T22:20:32.487Z,101892.34
2022-09-21T22:23:04.245Z,101877.25
2022-09-21T22:25:35.505Z,101906.50
2022-09-21T22:28:07.050Z,101904.75
2022-09-21T22:30:39.038Z,101897.69
2022-09-21T22:33:10.281Z,101902.13
2022-09-21T22:35:41.520Z,101890.59
2022-09-21T22:38:13.510Z,101893.25
2022-09-21T22:40:45.604Z,101889.75
2022-09-21T22:43:16.983Z,101900.38
2022-09-21T22:45:48.280Z,101905.69
2022-09-21T22:48:19.528Z,101895.06
2022-09-21T22:50:51.159Z,101904.78
2022-09-21T22:53:23.358Z,101899.47
2022-09-21T22:56:05.922Z,101879.94
2022-09-21T22:58:40.322Z,101882.59
2022-09-21T23:01:13.158Z,101893.16
2022-09-21T23:03:46.949Z,101883.41
2022-09-21T23:06:19.634Z,101871.81
2022-09-21T23:08:52.103Z,101891.25
2022-09-21T23:11:27.041Z,101887.72
2022-09-21T23:13:59.324Z,101853.09
2022-09-21T23:16:31.646Z,101888.50
2022-09-21T23:19:03.318Z,101873.44
2022-09-21T23:21:34.574Z,101879.56
2022-09-21T23:24:06.080Z,101874.25
2022-09-21T23:26:37.433Z,101861.84
2022-09-21T23:29:12.529Z,101867.09
2022-09-21T23:31:46.062Z,101876.84
2022-09-21T23:34:17.768Z,101872.34
2022-09-21T23:36:49.041Z,101867.00
2022-09-21T23:39:20.313Z,101869.63
2022-09-21T23:41:51.674Z,101849.13
2022-09-21T23:44:22.978Z,101870.44
2022-09-21T23:46:54.288Z,101866.81
2022-09-21T23:49:25.742Z,101874.78
2022-09-21T23:51:56.984Z,101868.56
2022-09-21T23:54:28.477Z,101863.25
2022-09-21T23:56:59.724Z,101867.59
2022-09-21T23:59:31.005Z,101865.84
